Weather History for Monett, MO

Change the Weather History Date:

Thursday, August 14, 2014

  Actual Average (KJLN) Record (KJLN)
Temperature  
Mean Temperature 70 °F 80 °F  
Max Temperature 86 °F 92 °F 103 °F (2007)
Min Temperature 55 °F 69 °F 54 °F (2004)
Degree Days  
Heating Degree Days 0 0  
Month to date heating degree days 0  
Since 1 June heating degree days 5  
Since 1 July heating degree days 0  
Cooling Degree Days 6 15  
Month to date cooling degree days 221  
Year to date cooling degree days 1192  
Since 1 June cooling degree days 1012  
Growing Degree Days 20 (Base 50)    
Moisture  
Dew Point 59 °F    
Average Humidity 67    
Maximum Humidity 100    
Minimum Humidity 37    
Precipitation  
Precipitation 0.00 in 0.10 in 4.91 in (1980)
Month to date precipitation 1.42  
Year to date precipitation 29.04  
Sea Level Pressure  
Sea Level Pressure 30.07 in    
Wind  
Wind Speed 4 mph (South)    
Max Wind Speed 7 mph    
Max Gust Speed -    
Visibility 10 miles    
Events      
T = Trace of Precipitation, MM = Missing Value Source: NWS Daily Summary

Daily Weather History Graph

Daily Weather History Graph

Search for Another Location

Airport:

Trip Planner

Search our weather history database for the weather conditions in past years. The results will help you decide how hot, cold, wet, or windy it might be!

Date:

Astronomy

Aug. 14, 2014 Rise Set
Actual Time 6:32 AM CDT 8:08 PM CDT
Civil Twilight 6:04 AM CDT 8:36 PM CDT
Nautical Twilight 5:31 AM CDT 9:09 PM CDT
Astronomical Twilight 4:55 AM CDT 9:44 PM CDT
Moon 10:40 PM CDT (8/14) 11:01 AM CDT (8/14)
Length of Visible Light 14h 31m
Length of Day
13h 36m
Waning Gibbous, 79% of the Moon is Illuminated
Aug 14
Waning Gibbous
Aug 17
Last Quarter
Aug 25
New
Sep 2
First Quarter
Sep 8
Full

Hourly Weather History & Observations

Time (CDT) Temp. Heat Index Dew Point Humidity Pressure Visibility Wind Dir Wind Speed Gust Speed Precip Events Conditions
12:15 AM 62.6 °F - 59.0 °F 88% 30.09 in 10.0 mi NE 5.8 mph - N/A   Clear
12:35 AM 64.4 °F - 59.0 °F 83% 30.09 in 10.0 mi NE 5.8 mph - N/A   Clear
12:55 AM 64.4 °F - 59.0 °F 83% 30.09 in 10.0 mi NE 4.6 mph - N/A   Clear
1:15 AM 60.8 °F - 57.2 °F 88% 30.09 in 10.0 mi ENE 3.5 mph - N/A   Clear
1:35 AM 62.6 °F - 57.2 °F 82% 30.09 in 10.0 mi ESE 3.5 mph - N/A   Clear
1:55 AM 60.8 °F - 57.2 °F 88% 30.08 in 10.0 mi SSE 4.6 mph - N/A   Clear
2:15 AM 59.0 °F - 57.2 °F 94% 30.08 in 10.0 mi SE 3.5 mph - N/A   Clear
2:35 AM 60.8 °F - 57.2 °F 88% 30.08 in 10.0 mi SE 3.5 mph - N/A   Clear
2:55 AM 59.0 °F - 55.4 °F 88% 30.08 in 10.0 mi East 3.5 mph - N/A   Clear
3:15 AM 59.0 °F - 55.4 °F 88% 30.08 in 10.0 mi ENE 5.8 mph - N/A   Clear
3:35 AM 60.8 °F - 55.4 °F 82% 30.07 in 10.0 mi East 5.8 mph - N/A   Clear
3:55 AM 59.0 °F - 55.4 °F 88% 30.08 in 10.0 mi Calm Calm - N/A   Clear
4:15 AM 59.0 °F - 55.4 °F 88% 30.08 in 10.0 mi Calm Calm - N/A   Clear
4:35 AM 59.0 °F - 55.4 °F 88% 30.08 in 10.0 mi Calm Calm - N/A   Clear
5:15 AM 59.0 °F - 55.4 °F 88% 30.08 in 10.0 mi Calm Calm - N/A   Clear
5:35 AM 55.4 °F - 55.4 °F 100% 30.09 in 10.0 mi SSE 3.5 mph - N/A   Clear
5:55 AM 59.0 °F - 55.4 °F 88% 30.09 in 10.0 mi SE 4.6 mph - N/A   Clear
6:15 AM 59.0 °F - 55.4 °F 88% 30.09 in 10.0 mi SE 3.5 mph - N/A   Clear
6:35 AM 59.0 °F - 55.4 °F 88% 30.10 in 10.0 mi SE 4.6 mph - N/A   Clear
6:55 AM 59.0 °F - 57.2 °F 94% 30.10 in 10.0 mi ESE 3.5 mph - N/A   Clear
7:15 AM 60.8 °F - 57.2 °F 88% 30.10 in 10.0 mi SE 4.6 mph - N/A   Clear
7:35 AM 60.8 °F - 59.0 °F 94% 30.11 in 10.0 mi Calm Calm - N/A   Clear
7:55 AM 64.4 °F - 60.8 °F 88% 30.12 in 10.0 mi Calm Calm - N/A   Clear
8:15 AM 66.2 °F - 60.8 °F 83% 30.12 in 10.0 mi South 3.5 mph - N/A   Clear
8:35 AM 68.0 °F - 60.8 °F 78% 30.12 in 10.0 mi Calm Calm - N/A   Clear
8:55 AM 69.8 °F - 62.6 °F 78% 30.12 in 10.0 mi SSW 3.5 mph - N/A   Clear
9:15 AM 71.6 °F - 62.6 °F 73% 30.12 in 10.0 mi SW 3.5 mph - N/A   Clear
9:35 AM 73.4 °F - 62.6 °F 69% 30.13 in 10.0 mi SW 4.6 mph - N/A   Clear
9:55 AM 75.2 °F - 62.6 °F 65% 30.13 in 10.0 mi SSW 4.6 mph - N/A   Clear
10:15 AM 75.2 °F - 62.6 °F 65% 30.13 in 10.0 mi WSW 4.6 mph - N/A   Clear
10:35 AM 77.0 °F - 60.8 °F 57% 30.13 in 10.0 mi Calm Calm - N/A   Clear
10:55 AM 78.8 °F - 59.0 °F 51% 30.12 in 10.0 mi WSW 4.6 mph - N/A   Clear
11:15 AM 78.8 °F - 59.0 °F 51% 30.12 in 10.0 mi SW 5.8 mph - N/A   Clear
11:35 AM 78.8 °F - 59.0 °F 51% 30.12 in 10.0 mi West 4.6 mph - N/A   Clear
11:55 AM 80.6 °F 81.1 °F 59.0 °F 48% 30.11 in 10.0 mi SW 5.8 mph - N/A   Clear
12:15 PM 80.6 °F 81.1 °F 59.0 °F 48% 30.10 in 10.0 mi SW 4.6 mph - N/A   Clear
12:35 PM 80.6 °F 81.1 °F 59.0 °F 48% 30.09 in 10.0 mi SSW 6.9 mph - N/A   Clear
12:55 PM 82.4 °F 82.5 °F 59.0 °F 45% 30.09 in 10.0 mi WSW 3.5 mph - N/A   Clear
1:15 PM 82.4 °F 82.0 °F 57.2 °F 42% 30.08 in 10.0 mi Calm Calm - N/A   Clear
1:35 PM 82.4 °F 82.5 °F 59.0 °F 45% 30.07 in 10.0 mi SW 3.5 mph - N/A   Clear
1:55 PM 84.2 °F 83.5 °F 57.2 °F 40% 30.07 in 10.0 mi West 3.5 mph - N/A   Clear
2:15 PM 84.2 °F 83.5 °F 57.2 °F 40% 30.06 in 10.0 mi SSW 3.5 mph - N/A   Clear
2:35 PM 84.2 °F 83.5 °F 57.2 °F 40% 30.05 in 10.0 mi West 3.5 mph - N/A   Clear
2:55 PM 84.2 °F 83.5 °F 57.2 °F 40% 30.05 in 10.0 mi SSW 4.6 mph - N/A   Clear
3:15 PM 86.0 °F 84.9 °F 57.2 °F 37% 30.05 in 10.0 mi South 4.6 mph - N/A   Clear
3:35 PM 86.0 °F 85.4 °F 59.0 °F 40% 30.04 in 10.0 mi SW 4.6 mph - N/A   Clear
3:55 PM 84.2 °F 83.5 °F 57.2 °F 40% 30.04 in 10.0 mi South 4.6 mph - N/A   Clear
4:15 PM 86.0 °F 84.9 °F 57.2 °F 37% 30.03 in 10.0 mi Calm Calm - N/A   Clear
4:35 PM 86.0 °F 84.9 °F 57.2 °F 37% 30.03 in 10.0 mi SW 3.5 mph - N/A   Clear
4:55 PM 86.0 °F 84.9 °F 57.2 °F 37% 30.02 in 10.0 mi South 5.8 mph - N/A   Clear
5:35 PM 86.0 °F 85.4 °F 59.0 °F 40% 30.02 in 10.0 mi SE 3.5 mph - N/A   Clear
5:55 PM 86.0 °F 85.4 °F 59.0 °F 40% 30.02 in 10.0 mi South 4.6 mph - N/A   Clear
6:15 PM 84.2 °F 84.4 °F 60.8 °F 45% 30.02 in 10.0 mi South 6.9 mph - N/A   Clear
6:35 PM 82.4 °F 82.9 °F 60.8 °F 48% 30.01 in 10.0 mi South 5.8 mph - N/A   Clear
6:55 PM 82.4 °F 82.9 °F 60.8 °F 48% 30.01 in 10.0 mi SSE 3.5 mph - N/A   Clear
7:15 PM 80.6 °F 81.5 °F 60.8 °F 51% 30.01 in 10.0 mi SSE 4.6 mph - N/A   Clear
7:35 PM 80.6 °F 81.5 °F 60.8 °F 51% 30.01 in 10.0 mi SSE 3.5 mph - N/A   Clear
7:55 PM 77.0 °F - 62.6 °F 61% 30.01 in 10.0 mi South 3.5 mph - N/A   Clear
8:15 PM 77.0 °F - 62.6 °F 61% 30.01 in 10.0 mi SSE 4.6 mph - N/A   Clear
8:35 PM 75.2 °F - 62.6 °F 65% 30.01 in 10.0 mi SSE 3.5 mph - N/A   Clear
8:55 PM 73.4 °F - 62.6 °F 69% 30.01 in 10.0 mi South 3.5 mph - N/A   Clear
9:15 PM 71.6 °F - 62.6 °F 73% 30.02 in 10.0 mi Calm Calm - N/A   Clear
9:35 PM 71.6 °F - 62.6 °F 73% 30.02 in 10.0 mi Calm Calm - N/A   Clear
9:55 PM 71.6 °F - 62.6 °F 73% 30.03 in 10.0 mi Calm Calm - N/A   Clear
10:15 PM 71.6 °F - 62.6 °F 73% 30.03 in 10.0 mi South 3.5 mph - N/A   Clear
10:35 PM 69.8 °F - 62.6 °F 78% 30.03 in 10.0 mi SSE 4.6 mph - N/A   Clear
10:55 PM 71.6 °F - 62.6 °F 73% 30.03 in 10.0 mi South 3.5 mph - N/A   Clear
11:15 PM 69.8 °F - 62.6 °F 78% 30.03 in 10.0 mi South 3.5 mph - N/A   Clear
11:35 PM 69.8 °F - 62.6 °F 78% 30.03 in 10.0 mi South 4.6 mph - N/A   Clear
11:55 PM 68.0 °F - 62.6 °F 83% 30.03 in 10.0 mi South 3.5 mph - N/A   Clear